sensor_id;sensor_type;location;lat;lon;timestamp;pressure;altitude;pressure_sealevel;temperature;humidity
788;BME280;16074;42.708;23.312;2023-10-19T00:01:58;140642.91;;;9.66;100.00
788;BME280;16074;42.708;23.312;2023-10-19T00:04:26;140642.91;;;9.66;100.00
788;BME280;16074;42.708;23.312;2023-10-19T00:06:59;140634.53;;;9.63;100.00
788;BME280;16074;42.708;23.312;2023-10-19T00:09:26;140618.84;;;9.56;100.00
788;BME280;16074;42.708;23.312;2023-10-19T00:12:03;140612.84;;;9.54;100.00
788;BME280;16074;42.708;23.312;2023-10-19T00:14:33;140618.84;;;9.56;100.00
788;BME280;16074;42.708;23.312;2023-10-19T00:17:03;140591.19;;;9.45;100.00
788;BME280;16074;42.708;23.312;2023-10-19T00:19:38;140602.00;;;9.49;100.00
788;BME280;16074;42.708;23.312;2023-10-19T00:22:08;140611.63;;;9.53;100.00
788;BME280;16074;42.708;23.312;2023-10-19T00:24:43;140603.22;;;9.50;100.00
788;BME280;16074;42.708;23.312;2023-10-19T00:27:11;140591.19;;;9.45;100.00
788;BME280;16074;42.708;23.312;2023-10-19T00:29:44;140583.97;;;9.42;100.00
788;BME280;16074;42.708;23.312;2023-10-19T00:32:18;140571.94;;;9.37;100.00
788;BME280;16074;42.708;23.312;2023-10-19T00:34:46;140574.34;;;9.38;100.00
788;BME280;16074;42.708;23.312;2023-10-19T00:37:19;140571.94;;;9.37;100.00
788;BME280;16074;42.708;23.312;2023-10-19T00:39:54;140550.28;;;9.28;100.00
788;BME280;16074;42.708;23.312;2023-10-19T00:42:23;140538.25;;;9.23;100.00
788;BME280;16074;42.708;23.312;2023-10-19T00:44:58;140535.84;;;9.22;100.00
788;BME280;16074;42.708;23.312;2023-10-19T00:47:33;140523.84;;;9.17;100.00
788;BME280;16074;42.708;23.312;2023-10-19T00:50:08;140532.28;;;9.21;100.00
788;BME280;16074;42.708;23.312;2023-10-19T00:52:43;140531.03;;;9.20;100.00
788;BME280;16074;42.708;23.312;2023-10-19T00:55:17;140504.59;;;9.09;100.00
788;BME280;16074;42.708;23.312;2023-10-19T00:57:48;140519.03;;;9.15;100.00
788;BME280;16074;42.708;23.312;2023-10-19T01:00:19;140508.22;;;9.11;100.00
788;BME280;16074;42.708;23.312;2023-10-19T01:02:59;140497.41;;;9.06;100.00
788;BME280;16074;42.708;23.312;2023-10-19T01:05:32;140488.97;;;9.03;100.00
788;BME280;16074;42.708;23.312;2023-10-19T01:08:06;140457.69;;;8.90;100.00
788;BME280;16074;42.708;23.312;2023-10-19T01:10:51;140454.13;;;8.88;100.00
788;BME280;16074;42.708;23.312;2023-10-19T01:13:21;140451.72;;;8.87;100.00
788;BME280;16074;42.708;23.312;2023-10-19T01:15:54;140457.69;;;8.90;100.00
788;BME280;16074;42.708;23.312;2023-10-19T01:18:26;140451.72;;;8.87;100.00
788;BME280;16074;42.708;23.312;2023-10-19T01:20:56;140439.69;;;8.82;100.00
788;BME280;16074;42.708;23.312;2023-10-19T01:23:27;140452.91;;;8.88;100.00
788;BME280;16074;42.708;23.312;2023-10-19T01:25:57;140446.91;;;8.85;100.00
788;BME280;16074;42.708;23.312;2023-10-19T01:28:34;140415.63;;;8.72;100.00
788;BME280;16074;42.708;23.312;2023-10-19T01:31:16;140415.63;;;8.72;100.00
788;BME280;16074;42.708;23.312;2023-10-19T01:33:50;140363.97;;;8.51;100.00
788;BME280;16074;42.708;23.312;2023-10-19T01:36:21;140342.31;;;8.42;100.00
788;BME280;16074;42.708;23.312;2023-10-19T01:38:55;140361.56;;;8.50;100.00
788;BME280;16074;42.708;23.312;2023-10-19T01:41:25;140367.56;;;8.52;100.00
788;BME280;16074;42.708;23.312;2023-10-19T01:43:54;140312.31;;;8.29;100.00
788;BME280;16074;42.708;23.312;2023-10-19T01:46:23;140300.28;;;8.25;100.00
788;BME280;16074;42.708;23.312;2023-10-19T01:48:53;140301.47;;;8.25;100.00
788;BME280;16074;42.708;23.312;2023-10-19T01:51:23;140299.06;;;8.24;100.00
788;BME280;16074;42.708;23.312;2023-10-19T01:53:55;140302.69;;;8.26;100.00
788;BME280;16074;42.708;23.312;2023-10-19T01:56:23;140307.50;;;8.27;100.00
788;BME280;16074;42.708;23.312;2023-10-19T01:58:52;140303.88;;;8.26;100.00
788;BME280;16074;42.708;23.312;2023-10-19T02:01:21;140318.28;;;8.32;100.00
788;BME280;16074;42.708;23.312;2023-10-19T02:03:59;140341.16;;;8.41;100.00
788;BME280;16074;42.708;23.312;2023-10-19T02:06:29;140320.69;;;8.33;100.00
788;BME280;16074;42.708;23.312;2023-10-19T02:09:06;140335.13;;;8.39;100.00
788;BME280;16074;42.708;23.312;2023-10-19T02:11:44;140331.53;;;8.37;100.00
788;BME280;16074;42.708;23.312;2023-10-19T02:14:17;140321.91;;;8.33;100.00
788;BME280;16074;42.708;23.312;2023-10-19T02:16:47;140318.28;;;8.32;100.00
788;BME280;16074;42.708;23.312;2023-10-19T02:19:21;140314.72;;;8.30;100.00
788;BME280;16074;42.708;23.312;2023-10-19T02:21:50;140326.72;;;8.35;100.00
788;BME280;16074;42.708;23.312;2023-10-19T02:24:21;140331.53;;;8.37;100.00
788;BME280;16074;42.708;23.312;2023-10-19T02:26:50;140332.72;;;8.38;100.00
788;BME280;16074;42.708;23.312;2023-10-19T02:29:18;140329.13;;;8.36;100.00
788;BME280;16074;42.708;23.312;2023-10-19T02:31:47;140342.31;;;8.42;100.00
788;BME280;16074;42.708;23.312;2023-10-19T02:34:17;140313.47;;;8.30;100.00
788;BME280;16074;42.708;23.312;2023-10-19T02:36:46;140281.06;;;8.17;100.00
788;BME280;16074;42.708;23.312;2023-10-19T02:39:15;140229.38;;;7.95;100.00
788;BME280;16074;42.708;23.312;2023-10-19T02:41:47;140243.78;;;8.01;100.00
788;BME280;16074;42.708;23.312;2023-10-19T02:44:17;140232.94;;;7.97;100.00
788;BME280;16074;42.708;23.312;2023-10-19T02:46:50;140256.97;;;8.07;100.00
788;BME280;16074;42.708;23.312;2023-10-19T02:49:20;140256.97;;;8.07;100.00
788;BME280;16074;42.708;23.312;2023-10-19T02:51:51;140186.13;;;7.77;100.00
788;BME280;16074;42.708;23.312;2023-10-19T02:54:20;140235.34;;;7.98;100.00
788;BME280;16074;42.708;23.312;2023-10-19T02:56:53;140244.97;;;8.02;100.00
788;BME280;16074;42.708;23.312;2023-10-19T02:59:21;140228.13;;;7.95;100.00
788;BME280;16074;42.708;23.312;2023-10-19T03:01:51;140249.78;;;8.04;100.00
788;BME280;16074;42.708;23.312;2023-10-19T03:04:19;140225.72;;;7.94;100.00
788;BME280;16074;42.708;23.312;2023-10-19T03:06:48;140236.56;;;7.98;100.00
788;BME280;16074;42.708;23.312;2023-10-19T03:09:16;140220.97;;;7.92;100.00
788;BME280;16074;42.708;23.312;2023-10-19T03:11:51;140214.94;;;7.89;100.00
788;BME280;16074;42.708;23.312;2023-10-19T03:14:20;140237.75;;;7.99;100.00
788;BME280;16074;42.708;23.312;2023-10-19T03:16:52;140234.16;;;7.97;100.00
788;BME280;16074;42.708;23.312;2023-10-19T03:19:19;140252.16;;;8.05;100.00
788;BME280;16074;42.708;23.312;2023-10-19T03:21:48;140251.00;;;8.04;100.00
788;BME280;16074;42.708;23.312;2023-10-19T03:24:17;140256.97;;;8.07;100.00
788;BME280;16074;42.708;23.312;2023-10-19T03:27:05;140252.16;;;8.05;100.00
788;BME280;16074;42.708;23.312;2023-10-19T03:29:40;140229.38;;;7.95;100.00
788;BME280;16074;42.708;23.312;2023-10-19T03:32:13;140230.53;;;7.96;100.00
788;BME280;16074;42.708;23.312;2023-10-19T03:34:44;140247.38;;;8.03;100.00
788;BME280;16074;42.708;23.312;2023-10-19T03:37:15;140240.16;;;8.00;100.00
788;BME280;16074;42.708;23.312;2023-10-19T03:39:46;140230.53;;;7.96;100.00
788;BME280;16074;42.708;23.312;2023-10-19T03:42:16;140218.56;;;7.91;100.00
788;BME280;16074;42.708;23.312;2023-10-19T03:44:47;140232.94;;;7.97;100.00
788;BME280;16074;42.708;23.312;2023-10-19T03:47:21;140225.72;;;7.94;100.00
788;BME280;16074;42.708;23.312;2023-10-19T03:49:55;140238.97;;;7.99;100.00
788;BME280;16074;42.708;23.312;2023-10-19T03:52:27;140208.97;;;7.87;100.00
788;BME280;16074;42.708;23.312;2023-10-19T03:54:57;140235.34;;;7.98;100.00
788;BME280;16074;42.708;23.312;2023-10-19T03:57:27;140218.56;;;7.91;100.00
788;BME280;16074;42.708;23.312;2023-10-19T03:59:57;140206.56;;;7.86;100.00
788;BME280;16074;42.708;23.312;2023-10-19T04:02:26;140190.91;;;7.79;100.00
788;BME280;16074;42.708;23.312;2023-10-19T04:04:56;140180.13;;;7.75;100.00
788;BME280;16074;42.708;23.312;2023-10-19T04:07:25;140153.72;;;7.64;100.00
788;BME280;16074;42.708;23.312;2023-10-19T04:09:55;140154.94;;;7.64;100.00
788;BME280;16074;42.708;23.312;2023-10-19T04:12:39;140153.72;;;7.64;100.00
788;BME280;16074;42.708;23.312;2023-10-19T04:15:10;140121.31;;;7.50;100.00
788;BME280;16074;42.708;23.312;2023-10-19T04:17:43;140135.72;;;7.56;100.00
788;BME280;16074;42.708;23.312;2023-10-19T04:20:12;140132.09;;;7.55;100.00
788;BME280;16074;42.708;23.312;2023-10-19T04:22:56;140122.47;;;7.51;100.00
788;BME280;16074;42.708;23.312;2023-10-19T04:25:25;140141.69;;;7.59;100.00
788;BME280;16074;42.708;23.312;2023-10-19T04:27:55;140147.72;;;7.61;100.00
788;BME280;16074;42.708;23.312;2023-10-19T04:30:24;140146.50;;;7.61;100.00
788;BME280;16074;42.708;23.312;2023-10-19T04:32:53;140153.72;;;7.64;100.00
788;BME280;16074;42.708;23.312;2023-10-19T04:35:24;140160.91;;;7.67;100.00
788;BME280;16074;42.708;23.312;2023-10-19T04:37:57;140158.50;;;7.66;100.00
788;BME280;16074;42.708;23.312;2023-10-19T04:40:27;140124.88;;;7.52;100.00
788;BME280;16074;42.708;23.312;2023-10-19T04:42:57;140128.50;;;7.53;100.00
788;BME280;16074;42.708;23.312;2023-10-19T04:45:26;140126.09;;;7.52;100.00
788;BME280;16074;42.708;23.312;2023-10-19T04:47:56;140105.66;;;7.44;100.00
788;BME280;16074;42.708;23.312;2023-10-19T04:50:25;140093.66;;;7.39;100.00
788;BME280;16074;42.708;23.312;2023-10-19T04:52:53;140104.50;;;7.43;100.00
788;BME280;16074;42.708;23.312;2023-10-19T04:55:22;140109.28;;;7.45;100.00
788;BME280;16074;42.708;23.312;2023-10-19T04:57:50;140115.28;;;7.48;100.00
788;BME280;16074;42.708;23.312;2023-10-19T05:00:20;140126.09;;;7.52;100.00
788;BME280;16074;42.708;23.312;2023-10-19T05:02:48;140123.72;;;7.51;100.00
788;BME280;16074;42.708;23.312;2023-10-19T05:05:19;140130.91;;;7.54;100.00
788;BME280;16074;42.708;23.312;2023-10-19T05:07:47;140146.50;;;7.61;100.00
788;BME280;16074;42.708;23.312;2023-10-19T05:10:16;140151.31;;;7.63;100.00
788;BME280;16074;42.708;23.312;2023-10-19T05:12:47;140160.91;;;7.67;100.00
788;BME280;16074;42.708;23.312;2023-10-19T05:15:15;140151.31;;;7.63;100.00
788;BME280;16074;42.708;23.312;2023-10-19T05:17:46;140156.09;;;7.65;100.00
788;BME280;16074;42.708;23.312;2023-10-19T05:20:15;140163.31;;;7.68;100.00
788;BME280;16074;42.708;23.312;2023-10-19T05:22:43;140175.31;;;7.73;100.00
788;BME280;16074;42.708;23.312;2023-10-19T05:25:12;140195.72;;;7.81;100.00
788;BME280;16074;42.708;23.312;2023-10-19T05:27:40;140216.16;;;7.90;100.00
788;BME280;16074;42.708;23.312;2023-10-19T05:30:13;140223.38;;;7.93;100.00
788;BME280;16074;42.708;23.312;2023-10-19T05:32:41;140237.75;;;7.99;100.00
788;BME280;16074;42.708;23.312;2023-10-19T05:35:11;140261.78;;;8.09;100.00
788;BME280;16074;42.708;23.312;2023-10-19T05:37:45;140287.09;;;8.19;100.00
788;BME280;16074;42.708;23.312;2023-10-19T05:40:16;140307.50;;;8.27;100.00
788;BME280;16074;42.708;23.312;2023-10-19T05:42:46;140313.47;;;8.30;100.00
788;BME280;16074;42.708;23.312;2023-10-19T05:45:14;140342.31;;;8.42;100.00
788;BME280;16074;42.708;23.312;2023-10-19T05:47:43;140367.56;;;8.52;100.00
788;BME280;16074;42.708;23.312;2023-10-19T05:50:14;140392.81;;;8.63;100.00
788;BME280;16074;42.708;23.312;2023-10-19T05:52:42;140427.66;;;8.77;100.00
788;BME280;16074;42.708;23.312;2023-10-19T05:55:11;140456.53;;;8.89;100.00
788;BME280;16074;42.708;23.312;2023-10-19T05:57:40;140488.97;;;9.03;100.00
788;BME280;16074;42.708;23.312;2023-10-19T06:00:10;140501.00;;;9.08;100.00
788;BME280;16074;42.708;23.312;2023-10-19T06:02:43;140511.81;;;9.12;100.00
788;BME280;16074;42.708;23.312;2023-10-19T06:05:14;140538.25;;;9.23;100.00
788;BME280;16074;42.708;23.312;2023-10-19T06:07:44;140583.97;;;9.42;100.00
788;BME280;16074;42.708;23.312;2023-10-19T06:10:13;140606.81;;;9.51;100.00
788;BME280;16074;42.708;23.312;2023-10-19T06:12:45;140630.88;;;9.61;100.00
788;BME280;16074;42.708;23.312;2023-10-19T06:15:14;140670.56;;;9.78;100.00
788;BME280;16074;42.708;23.312;2023-10-19T06:17:43;140682.63;;;9.83;100.00
788;BME280;16074;42.708;23.312;2023-10-19T06:20:15;140722.31;;;9.99;100.00
788;BME280;16074;42.708;23.312;2023-10-19T06:22:54;140742.84;;;10.08;100.00
788;BME280;16074;42.708;23.312;2023-10-19T06:25:24;140760.88;;;10.15;100.00
788;BME280;16074;42.708;23.312;2023-10-19T06:27:53;140777.75;;;10.22;100.00
788;BME280;16074;42.708;23.312;2023-10-19T06:30:25;140797.00;;;10.30;100.00
788;BME280;16074;42.708;23.312;2023-10-19T06:32:54;140758.47;;;10.14;100.00
788;BME280;16074;42.708;23.312;2023-10-19T06:35:25;140792.19;;;10.28;100.00
788;BME280;16074;42.708;23.312;2023-10-19T06:37:54;140697.06;;;9.89;100.00
788;BME280;16074;42.708;23.312;2023-10-19T06:40:23;140754.88;;;10.13;100.00
788;BME280;16074;42.708;23.312;2023-10-19T06:42:54;140762.13;;;10.16;100.00
788;BME280;16074;42.708;23.312;2023-10-19T06:45:24;140772.94;;;10.20;100.00
788;BME280;16074;42.708;23.312;2023-10-19T06:47:53;140813.88;;;10.37;100.00
788;BME280;16074;42.708;23.312;2023-10-19T06:50:22;140845.13;;;10.50;100.00
788;BME280;16074;42.708;23.312;2023-10-19T06:52:52;140884.91;;;10.67;100.00
788;BME280;16074;42.708;23.312;2023-10-19T06:55:22;140918.59;;;10.80;100.00
788;BME280;16074;42.708;23.312;2023-10-19T06:57:52;140942.69;;;10.90;100.00
788;BME280;16074;42.708;23.312;2023-10-19T07:00:22;140958.38;;;10.97;100.00
788;BME280;16074;42.708;23.312;2023-10-19T07:02:56;141001.72;;;11.15;100.00
788;BME280;16074;42.708;23.312;2023-10-19T07:05:27;141034.28;;;11.28;100.00
788;BME280;16074;42.708;23.312;2023-10-19T07:08:00;141059.56;;;11.39;100.00
788;BME280;16074;42.708;23.312;2023-10-19T07:10:29;141098.19;;;11.55;100.00
788;BME280;16074;42.708;23.312;2023-10-19T07:12:57;141145.19;;;11.74;100.00
788;BME280;16074;42.708;23.312;2023-10-19T07:15:26;141141.53;;;11.73;100.00
788;BME280;16074;42.708;23.312;2023-10-19T07:17:57;141194.59;;;11.94;100.00
788;BME280;16074;42.708;23.312;2023-10-19T07:20:26;141234.38;;;12.11;100.00
788;BME280;16074;42.708;23.312;2023-10-19T07:22:57;141235.63;;;12.11;100.00
788;BME280;16074;42.708;23.312;2023-10-19T07:25:29;141283.81;;;12.31;100.00
788;BME280;16074;42.708;23.312;2023-10-19T07:27:58;141283.81;;;12.31;100.00
788;BME280;16074;42.708;23.312;2023-10-19T07:30:27;141353.81;;;12.60;100.00
788;BME280;16074;42.708;23.312;2023-10-19T07:32:57;141380.34;;;12.71;100.00
788;BME280;16074;42.708;23.312;2023-10-19T07:35:27;141397.22;;;12.78;100.00
788;BME280;16074;42.708;23.312;2023-10-19T07:38:01;141427.47;;;12.91;100.00
788;BME280;16074;42.708;23.312;2023-10-19T07:40:32;141446.78;;;12.99;100.00
788;BME280;16074;42.708;23.312;2023-10-19T07:43:01;141473.28;;;13.09;100.00
788;BME280;16074;42.708;23.312;2023-10-19T07:45:31;141469.69;;;13.08;100.00
788;BME280;16074;42.708;23.312;2023-10-19T07:48:02;141505.91;;;13.23;100.00
788;BME280;16074;42.708;23.312;2023-10-19T07:50:34;141534.84;;;13.35;100.00
788;BME280;16074;42.708;23.312;2023-10-19T07:53:03;141571.06;;;13.50;100.00
788;BME280;16074;42.708;23.312;2023-10-19T07:55:33;141589.22;;;13.57;100.00
788;BME280;16074;42.708;23.312;2023-10-19T07:58:02;141615.75;;;13.68;100.00
788;BME280;16074;42.708;23.312;2023-10-19T08:00:31;141624.22;;;13.72;100.00
788;BME280;16074;42.708;23.312;2023-10-19T08:03:01;141690.66;;;13.99;100.00
788;BME280;16074;42.708;23.312;2023-10-19T08:05:30;141742.63;;;14.21;100.00
788;BME280;16074;42.708;23.312;2023-10-19T08:07:59;141768.00;;;14.31;100.00
788;BME280;16074;42.708;23.312;2023-10-19T08:10:28;141836.88;;;14.59;100.00
788;BME280;16074;42.708;23.312;2023-10-19T08:12:58;141931.19;;;14.98;100.00
788;BME280;16074;42.708;23.312;2023-10-19T08:15:27;142014.63;;;15.33;100.00
788;BME280;16074;42.708;23.312;2023-10-19T08:17:58;142112.63;;;15.73;100.00
788;BME280;16074;42.708;23.312;2023-10-19T08:20:26;142200.97;;;16.09;99.95
788;BME280;16074;42.708;23.312;2023-10-19T08:22:59;142297.81;;;16.49;90.48
788;BME280;16074;42.708;23.312;2023-10-19T08:25:29;142400.75;;;16.91;82.96
788;BME280;16074;42.708;23.312;2023-10-19T08:28:02;142418.97;;;16.99;81.07
788;BME280;16074;42.708;23.312;2023-10-19T08:30:31;142496.47;;;17.31;77.96
788;BME280;16074;42.708;23.312;2023-10-19T08:33:01;142475.88;;;17.22;75.70
788;BME280;16074;42.708;23.312;2023-10-19T08:35:29;142520.75;;;17.41;77.94
788;BME280;16074;42.708;23.312;2023-10-19T08:37:58;142586.16;;;17.68;76.15
788;BME280;16074;42.708;23.312;2023-10-19T08:40:27;142681.94;;;18.07;71.97
788;BME280;16074;42.708;23.312;2023-10-19T08:42:55;142753.50;;;18.36;68.03
788;BME280;16074;42.708;23.312;2023-10-19T08:45:25;142819.03;;;18.63;66.53
788;BME280;16074;42.708;23.312;2023-10-19T08:47:56;142851.78;;;18.77;66.40
788;BME280;16074;42.708;23.312;2023-10-19T08:50:25;142839.63;;;18.72;66.50
788;BME280;16074;42.708;23.312;2023-10-19T08:52:55;142906.34;;;18.99;64.38
788;BME280;16074;42.708;23.312;2023-10-19T08:55:23;142964.66;;;19.23;62.28
788;BME280;16074;42.708;23.312;2023-10-19T08:58:13;142985.28;;;19.31;61.33
788;BME280;16074;42.708;23.312;2023-10-19T09:00:47;143105.47;;;19.81;58.16
788;BME280;16074;42.708;23.312;2023-10-19T09:03:16;143132.16;;;19.92;57.06
788;BME280;16074;42.708;23.312;2023-10-19T09:05:45;143078.75;;;19.70;56.89
788;BME280;16074;42.708;23.312;2023-10-19T09:08:15;143061.75;;;19.63;57.67
788;BME280;16074;42.708;23.312;2023-10-19T09:10:45;143021.72;;;19.46;58.79
788;BME280;16074;42.708;23.312;2023-10-19T09:13:14;143015.63;;;19.44;57.85
788;BME280;16074;42.708;23.312;2023-10-19T09:15:47;142995.00;;;19.35;60.34
788;BME280;16074;42.708;23.312;2023-10-19T09:18:18;142991.34;;;19.34;58.55
788;BME280;16074;42.708;23.312;2023-10-19T09:20:47;143054.47;;;19.60;60.10
788;BME280;16074;42.708;23.312;2023-10-19T09:23:35;143095.75;;;19.77;60.36
788;BME280;16074;42.708;23.312;2023-10-19T09:26:04;143190.50;;;20.16;57.45
788;BME280;16074;42.708;23.312;2023-10-19T09:28:36;143234.25;;;20.34;55.66
788;BME280;16074;42.708;23.312;2023-10-19T09:31:06;143235.44;;;20.34;55.54
788;BME280;16074;42.708;23.312;2023-10-19T09:33:40;143237.88;;;20.35;55.65
788;BME280;16074;42.708;23.312;2023-10-19T09:36:11;143237.88;;;20.35;56.01
788;BME280;16074;42.708;23.312;2023-10-19T09:38:45;143298.63;;;20.60;57.09
788;BME280;16074;42.708;23.312;2023-10-19T09:41:17;143383.72;;;20.95;53.87
788;BME280;16074;42.708;23.312;2023-10-19T09:43:47;143393.47;;;20.99;53.48
788;BME280;16074;42.708;23.312;2023-10-19T09:46:22;143349.69;;;20.81;54.42
788;BME280;16074;42.708;23.312;2023-10-19T09:48:51;143394.66;;;20.99;54.09
788;BME280;16074;42.708;23.312;2023-10-19T09:51:20;143425.06;;;21.12;53.22
788;BME280;16074;42.708;23.312;2023-10-19T09:53:55;143501.66;;;21.43;52.73
788;BME280;16074;42.708;23.312;2023-10-19T09:56:32;143517.44;;;21.50;51.91
788;BME280;16074;42.708;23.312;2023-10-19T09:59:06;143564.91;;;21.69;51.31
788;BME280;16074;42.708;23.312;2023-10-19T10:02:10;143528.38;;;21.54;50.78
788;BME280;16074;42.708;23.312;2023-10-19T10:04:41;143365.53;;;20.87;53.54
788;BME280;16074;42.708;23.312;2023-10-19T10:07:13;143405.59;;;21.04;53.75
788;BME280;16074;42.708;23.312;2023-10-19T10:10:03;143428.69;;;21.13;55.03
788;BME280;16074;42.708;23.312;2023-10-19T10:12:31;143468.78;;;21.30;53.54
788;BME280;16074;42.708;23.312;2023-10-19T10:15:03;143540.59;;;21.59;51.94
788;BME280;16074;42.708;23.312;2023-10-19T10:17:37;143560.03;;;21.67;51.58
788;BME280;16074;42.708;23.312;2023-10-19T10:20:29;143634.22;;;21.97;50.22
788;BME280;16074;42.708;23.312;2023-10-19T10:23:20;143723.06;;;22.34;49.57
788;BME280;16074;42.708;23.312;2023-10-19T10:28:24;143917.91;;;23.13;47.79
788;BME280;16074;42.708;23.312;2023-10-19T10:31:15;144021.38;;;23.56;47.31
788;BME280;16074;42.708;23.312;2023-10-19T10:33:50;144081.13;;;23.80;45.73
788;BME280;16074;42.708;23.312;2023-10-19T10:36:21;144036.00;;;23.62;44.59
788;BME280;16074;42.708;23.312;2023-10-19T10:38:51;144023.81;;;23.57;45.67
788;BME280;16074;42.708;23.312;2023-10-19T10:41:20;144084.81;;;23.82;45.05
788;BME280;16074;42.708;23.312;2023-10-19T10:43:50;144153.00;;;24.10;44.81
788;BME280;16074;42.708;23.312;2023-10-19T10:46:21;144166.44;;;24.15;43.92
788;BME280;16074;42.708;23.312;2023-10-19T10:48:51;144128.69;;;24.00;44.25
788;BME280;16074;42.708;23.312;2023-10-19T10:51:21;144161.56;;;24.13;43.59
788;BME280;16074;42.708;23.312;2023-10-19T10:53:52;144167.63;;;24.16;42.83
788;BME280;16074;42.708;23.312;2023-10-19T10:56:22;144121.38;;;23.97;43.15
788;BME280;16074;42.708;23.312;2023-10-19T10:58:51;144106.75;;;23.91;43.75
788;BME280;16074;42.708;23.312;2023-10-19T11:01:29;144139.63;;;24.04;43.18
788;BME280;16074;42.708;23.312;2023-10-19T11:04:10;144204.22;;;24.30;41.99
788;BME280;16074;42.708;23.312;2023-10-19T11:06:49;144210.31;;;24.33;43.21
788;BME280;16074;42.708;23.312;2023-10-19T11:09:18;144274.97;;;24.59;41.91
788;BME280;16074;42.708;23.312;2023-10-19T11:11:47;144222.47;;;24.38;42.15
788;BME280;16074;42.708;23.312;2023-10-19T11:14:16;144207.88;;;24.32;42.43
788;BME280;16074;42.708;23.312;2023-10-19T11:16:44;144178.63;;;24.20;43.36
788;BME280;16074;42.708;23.312;2023-10-19T11:19:15;144194.44;;;24.26;43.31
788;BME280;16074;42.708;23.312;2023-10-19T11:21:53;144235.91;;;24.43;43.07
788;BME280;16074;42.708;23.312;2023-10-19T11:24:26;144222.47;;;24.38;42.81
788;BME280;16074;42.708;23.312;2023-10-19T11:27:01;144184.69;;;24.22;42.58
788;BME280;16074;42.708;23.312;2023-10-19T11:29:29;144143.31;;;24.06;43.62
788;BME280;16074;42.708;23.312;2023-10-19T11:31:58;144156.69;;;24.11;44.02
788;BME280;16074;42.708;23.312;2023-10-19T11:34:28;144232.22;;;24.42;43.29
788;BME280;16074;42.708;23.312;2023-10-19T11:36:58;144205.44;;;24.31;42.99
788;BME280;16074;42.708;23.312;2023-10-19T11:39:27;144212.75;;;24.34;42.76
788;BME280;16074;42.708;23.312;2023-10-19T11:41:56;144183.50;;;24.22;43.65
788;BME280;16074;42.708;23.312;2023-10-19T11:44:25;144239.53;;;24.45;43.26
788;BME280;16074;42.708;23.312;2023-10-19T11:46:53;144237.09;;;24.44;42.98
788;BME280;16074;42.708;23.312;2023-10-19T11:49:22;144257.91;;;24.52;42.63
788;BME280;16074;42.708;23.312;2023-10-19T11:51:54;144248.16;;;24.48;44.12
788;BME280;16074;42.708;23.312;2023-10-19T11:54:22;144261.53;;;24.54;42.44
788;BME280;16074;42.708;23.312;2023-10-19T11:56:52;144184.69;;;24.22;43.67
788;BME280;16074;42.708;23.312;2023-10-19T11:59:21;144228.59;;;24.40;42.72
788;BME280;16074;42.708;23.312;2023-10-19T12:01:50;144185.94;;;24.23;42.60
788;BME280;16074;42.708;23.312;2023-10-19T12:04:19;144071.38;;;23.76;44.37
788;BME280;16074;42.708;23.312;2023-10-19T12:06:47;144128.69;;;24.00;43.97
788;BME280;16074;42.708;23.312;2023-10-19T12:09:17;144164.00;;;24.14;43.71
788;BME280;16074;42.708;23.312;2023-10-19T12:11:51;144209.09;;;24.32;43.72
788;BME280;16074;42.708;23.312;2023-10-19T12:14:22;144289.56;;;24.65;43.53
788;BME280;16074;42.708;23.312;2023-10-19T12:16:50;144367.63;;;24.97;42.29
788;BME280;16074;42.708;23.312;2023-10-19T12:19:23;144343.22;;;24.87;42.23
788;BME280;16074;42.708;23.312;2023-10-19T12:21:53;144410.34;;;25.15;41.76
788;BME280;16074;42.708;23.312;2023-10-19T12:24:23;144462.78;;;25.36;42.20
788;BME280;16074;42.708;23.312;2023-10-19T12:26:55;144522.56;;;25.60;41.27
788;BME280;16074;42.708;23.312;2023-10-19T12:29:24;144581.19;;;25.84;41.12
788;BME280;16074;42.708;23.312;2023-10-19T12:31:52;144573.88;;;25.81;40.94
788;BME280;16074;42.708;23.312;2023-10-19T12:34:21;144582.38;;;25.85;40.85
788;BME280;16074;42.708;23.312;2023-10-19T12:36:49;144636.09;;;26.07;40.71
788;BME280;16074;42.708;23.312;2023-10-19T12:39:19;144666.59;;;26.19;39.95
788;BME280;16074;42.708;23.312;2023-10-19T12:42:03;144711.75;;;26.38;39.56
788;BME280;16074;42.708;23.312;2023-10-19T12:44:33;144763.09;;;26.59;39.66
788;BME280;16074;42.708;23.312;2023-10-19T12:47:08;144831.50;;;26.86;39.83
788;BME280;16074;42.708;23.312;2023-10-19T12:49:41;144925.56;;;27.25;38.62
788;BME280;16074;42.708;23.312;2023-10-19T12:52:11;144973.25;;;27.44;37.96
788;BME280;16074;42.708;23.312;2023-10-19T12:54:41;145025.78;;;27.66;38.12
788;BME280;16074;42.708;23.312;2023-10-19T12:57:14;145101.56;;;27.97;37.82
788;BME280;16074;42.708;23.312;2023-10-19T12:59:43;145140.72;;;28.12;36.95
788;BME280;16074;42.708;23.312;2023-10-19T13:02:12;145139.47;;;28.12;37.48
788;BME280;16074;42.708;23.312;2023-10-19T13:04:42;145210.44;;;28.41;36.34
788;BME280;16074;42.708;23.312;2023-10-19T13:07:13;145236.09;;;28.51;35.89
788;BME280;16074;42.708;23.312;2023-10-19T13:09:42;145217.78;;;28.44;35.88
788;BME280;16074;42.708;23.312;2023-10-19T13:12:11;145154.13;;;28.18;36.30
788;BME280;16074;42.708;23.312;2023-10-19T13:14:41;145144.34;;;28.14;36.04
788;BME280;16074;42.708;23.312;2023-10-19T13:17:11;144995.19;;;27.53;36.58
788;BME280;16074;42.708;23.312;2023-10-19T13:19:39;144854.69;;;26.96;38.11
788;BME280;16074;42.708;23.312;2023-10-19T13:22:08;144750.88;;;26.54;38.65